createdAt,value
2023-04-25T00:00:54.701Z,9.43
2023-04-25T00:03:22.548Z,8.60
2023-04-25T00:05:50.110Z,10.55
2023-04-25T00:08:17.412Z,7.00
2023-04-25T00:10:44.614Z,7.18
2023-04-25T00:13:12.757Z,7.47
2023-04-25T00:15:39.845Z,6.72
2023-04-25T00:18:07.558Z,6.97
2023-04-25T00:20:34.561Z,9.77
2023-04-25T00:23:01.498Z,10.95
2023-04-25T00:25:28.818Z,7.03
2023-04-25T00:27:56.635Z,6.72
2023-04-25T00:30:24.283Z,8.57
2023-04-25T00:32:51.879Z,6.53
2023-04-25T00:35:19.053Z,8.98
2023-04-25T00:37:46.951Z,8.10
2023-04-25T00:40:14.210Z,6.70
2023-04-25T00:42:42.616Z,8.75
2023-04-25T00:45:14.494Z,5.80
2023-04-25T00:47:42.724Z,6.50
2023-04-25T00:50:10.652Z,11.63
2023-04-25T00:52:44.162Z,7.85
2023-04-25T00:57:41.719Z,7.50
2023-04-25T01:00:15.104Z,9.00
2023-04-25T01:02:43.844Z,7.75
2023-04-25T01:05:11.253Z,6.78
2023-04-25T01:07:38.898Z,7.93
2023-04-25T01:10:07.417Z,7.57
2023-04-25T01:12:35.169Z,8.85
2023-04-25T01:15:02.111Z,9.43
2023-04-25T01:17:30.357Z,7.22
2023-04-25T01:20:07.086Z,9.52
2023-04-25T01:22:34.507Z,10.48
2023-04-25T01:25:01.877Z,9.32
2023-04-25T01:27:31.509Z,8.77
2023-04-25T01:30:00.852Z,9.15
2023-04-25T01:32:28.819Z,10.07
2023-04-25T01:34:56.135Z,8.70
2023-04-25T01:37:23.688Z,7.90
2023-04-25T01:39:51.458Z,8.25
2023-04-25T01:42:19.057Z,9.85
2023-04-25T01:44:46.004Z,8.57
2023-04-25T01:47:12.976Z,8.70
2023-04-25T01:49:40.303Z,8.13
2023-04-25T01:52:07.307Z,8.77
2023-04-25T01:54:34.339Z,8.93
2023-04-25T01:57:02.928Z,9.27
2023-04-25T01:59:31.044Z,7.63
2023-04-25T02:02:07.976Z,9.38
2023-04-25T02:04:36.617Z,15.43
2023-04-25T02:07:10.229Z,7.97
2023-04-25T02:09:58.241Z,7.05
2023-04-25T02:12:29.038Z,8.60
2023-04-25T02:15:16.460Z,7.47
2023-04-25T02:17:50.500Z,6.80
2023-04-25T02:20:17.767Z,8.63
2023-04-25T02:22:44.759Z,7.25
2023-04-25T02:25:14.765Z,6.95
2023-04-25T02:27:42.326Z,9.35
2023-04-25T02:30:10.093Z,8.48
2023-04-25T02:32:37.852Z,9.20
2023-04-25T02:35:05.711Z,9.23
2023-04-25T02:37:34.502Z,8.48
2023-04-25T02:40:01.832Z,9.45
2023-04-25T02:42:29.544Z,12.32
2023-04-25T02:44:58.252Z,9.93
2023-04-25T02:47:26.053Z,9.60
2023-04-25T02:49:54.273Z,12.20
2023-04-25T02:52:28.402Z,12.20
2023-04-25T02:54:59.889Z,12.48
2023-04-25T02:57:29.274Z,9.05
2023-04-25T02:59:57.207Z,8.18
2023-04-25T03:02:24.862Z,9.48
2023-04-25T03:04:52.272Z,12.32
2023-04-25T03:07:20.555Z,8.57
2023-04-25T03:09:50.382Z,9.55
2023-04-25T03:12:17.883Z,10.45
2023-04-25T03:14:45.611Z,9.65
2023-04-25T03:17:13.134Z,14.00
2023-04-25T03:19:40.570Z,9.85
2023-04-25T03:22:08.288Z,8.73
2023-04-25T03:24:36.675Z,8.65
2023-04-25T03:27:04.769Z,10.60
2023-04-25T03:29:32.529Z,6.50
2023-04-25T03:32:04.790Z,7.82
2023-04-25T03:34:33.543Z,7.20
2023-04-25T03:37:01.246Z,9.45
2023-04-25T03:39:30.824Z,8.48
2023-04-25T03:42:00.301Z,5.55
2023-04-25T03:44:31.737Z,5.07
2023-04-25T03:47:01.634Z,6.30
2023-04-25T03:49:30.905Z,7.57
2023-04-25T03:57:16.461Z,5.97
2023-04-25T03:59:46.632Z,6.05
2023-04-25T04:02:16.196Z,6.25
2023-04-25T04:04:45.374Z,6.03
2023-04-25T04:07:13.828Z,8.30
2023-04-25T04:09:43.893Z,4.82
2023-04-25T04:12:18.024Z,6.18
2023-04-25T04:14:46.311Z,5.32
2023-04-25T04:17:14.080Z,4.95
2023-04-25T04:19:41.748Z,4.72
2023-04-25T04:22:16.058Z,5.88
2023-04-25T04:24:47.924Z,4.97
2023-04-25T04:27:21.515Z,6.55
2023-04-25T04:29:55.914Z,6.00
2023-04-25T04:32:28.695Z,5.03
2023-04-25T04:34:59.169Z,4.45
2023-04-25T04:37:26.404Z,5.43
2023-04-25T04:39:54.175Z,6.50
2023-04-25T04:42:32.828Z,4.68
2023-04-25T04:45:11.728Z,4.82
2023-04-25T04:47:47.002Z,4.32
2023-04-25T04:50:19.414Z,4.70
2023-04-25T04:53:09.694Z,3.95
2023-04-25T04:56:00.223Z,4.60
2023-04-25T04:58:51.538Z,4.45
2023-04-25T05:01:34.338Z,6.30
2023-04-25T05:04:21.951Z,7.53
2023-04-25T05:06:50.784Z,5.38
2023-04-25T05:09:37.124Z,3.97
2023-04-25T05:12:21.117Z,3.40
2023-04-25T05:15:16.568Z,6.00
2023-04-25T05:18:22.412Z,4.03
2023-04-25T05:21:09.553Z,5.43
2023-04-25T05:23:47.521Z,4.80
2023-04-25T05:26:33.992Z,4.10
2023-04-25T05:29:20.412Z,6.03
2023-04-25T05:32:07.621Z,3.75
2023-04-25T05:34:36.853Z,4.10
2023-04-25T05:37:07.659Z,6.13
2023-04-25T05:39:42.119Z,4.43
2023-04-25T05:42:37.217Z,3.95
2023-04-25T05:45:35.659Z,3.75
2023-04-25T05:48:22.493Z,5.10
2023-04-25T05:51:10.415Z,4.80
2023-04-25T05:53:47.359Z,4.90
2023-04-25T05:56:16.280Z,3.92
2023-04-25T05:58:43.716Z,3.75
2023-04-25T06:01:14.280Z,4.85
2023-04-25T06:03:44.384Z,2.60
2023-04-25T06:06:13.634Z,3.88
2023-04-25T06:08:42.989Z,3.85
2023-04-25T06:11:13.472Z,5.18
2023-04-25T06:13:41.231Z,4.07
2023-04-25T06:16:08.667Z,2.88
2023-04-25T06:18:36.561Z,5.13
2023-04-25T06:21:04.781Z,3.53
2023-04-25T06:23:33.161Z,7.05
2023-04-25T06:28:35.927Z,2.55
2023-04-25T06:31:04.033Z,5.22
2023-04-25T06:33:31.941Z,4.57
2023-04-25T06:35:59.647Z,3.83
2023-04-25T06:38:28.213Z,3.83
2023-04-25T06:40:57.745Z,3.00
2023-04-25T06:43:28.047Z,4.43
2023-04-25T06:46:04.540Z,3.88
2023-04-25T06:48:33.990Z,4.22
2023-04-25T06:51:03.695Z,3.33
2023-04-25T06:53:32.227Z,3.42
2023-04-25T06:56:03.235Z,5.05
2023-04-25T06:58:41.286Z,3.22
2023-04-25T07:01:16.720Z,2.50
2023-04-25T07:03:44.816Z,2.70
2023-04-25T07:06:17.565Z,2.55
2023-04-25T07:08:44.849Z,2.58
2023-04-25T07:11:14.049Z,2.95
2023-04-25T07:13:44.016Z,2.35
2023-04-25T07:16:12.219Z,2.80
2023-04-25T07:18:39.915Z,3.75
2023-04-25T07:21:07.691Z,3.47
2023-04-25T07:23:36.738Z,3.47
2023-04-25T07:26:10.042Z,2.25
2023-04-25T07:28:42.894Z,2.58
2023-04-25T07:31:12.016Z,1.98
2023-04-25T07:33:39.832Z,2.67
2023-04-25T07:36:08.655Z,3.63
2023-04-25T07:38:35.967Z,2.90
2023-04-25T07:41:03.368Z,2.53
2023-04-25T07:43:31.807Z,2.83
2023-04-25T07:46:00.201Z,3.65
2023-04-25T07:48:31.072Z,4.57
2023-04-25T07:50:58.705Z,2.58
2023-04-25T07:53:25.726Z,2.50
2023-04-25T07:56:01.130Z,2.95
2023-04-25T07:58:32.118Z,2.83
2023-04-25T08:01:02.394Z,2.83
2023-04-25T08:03:35.808Z,2.60
2023-04-25T08:06:08.410Z,1.88
2023-04-25T08:08:44.374Z,4.25
2023-04-25T08:11:14.807Z,2.53
2023-04-25T08:13:42.024Z,5.35
2023-04-25T08:16:11.049Z,2.35
2023-04-25T08:18:38.602Z,2.85
2023-04-25T08:21:08.691Z,2.65
2023-04-25T08:23:36.827Z,3.60
2023-04-25T08:26:10.256Z,2.63
2023-04-25T08:28:39.869Z,3.20
2023-04-25T08:31:07.258Z,3.03
2023-04-25T08:33:45.947Z,2.60
2023-04-25T08:36:39.463Z,3.15
2023-04-25T08:39:19.951Z,2.85
2023-04-25T08:42:09.017Z,2.60
2023-04-25T08:44:39.526Z,1.58
2023-04-25T08:47:07.101Z,2.95
2023-04-25T08:49:47.179Z,3.10
2023-04-25T08:52:15.918Z,3.42
2023-04-25T08:54:48.304Z,2.28
2023-04-25T08:57:16.568Z,2.55
2023-04-25T08:59:47.527Z,1.98
2023-04-25T09:02:18.124Z,2.83
2023-04-25T09:04:49.763Z,3.92
2023-04-25T09:07:19.817Z,3.67
2023-04-25T09:09:47.066Z,2.95
2023-04-25T09:12:20.581Z,2.50
2023-04-25T09:15:11.525Z,4.22
2023-04-25T09:18:01.572Z,3.90
2023-04-25T09:20:59.656Z,2.20
2023-04-25T09:23:28.939Z,3.38
2023-04-25T09:25:56.841Z,3.42
2023-04-25T09:28:30.878Z,3.80
2023-04-25T09:31:01.960Z,2.90
2023-04-25T09:33:43.810Z,2.72
2023-04-25T09:36:15.236Z,1.70
2023-04-25T09:38:57.613Z,3.05
2023-04-25T09:44:01.060Z,3.95
2023-04-25T09:46:38.871Z,2.65
2023-04-25T09:49:11.586Z,2.63
2023-04-25T09:51:59.013Z,2.25
2023-04-25T09:54:30.808Z,2.60
2023-04-25T09:57:25.993Z,3.80
2023-04-25T09:59:57.203Z,1.83
2023-04-25T10:02:28.680Z,3.65
2023-04-25T10:05:04.868Z,3.78
2023-04-25T10:07:40.811Z,2.25
2023-04-25T10:10:17.006Z,2.22
2023-04-25T10:12:46.068Z,2.63
2023-04-25T10:15:16.678Z,4.10
2023-04-25T10:17:45.581Z,1.92
2023-04-25T10:20:14.039Z,3.00
2023-04-25T10:22:45.469Z,2.78
2023-04-25T10:25:13.403Z,1.95
2023-04-25T10:27:41.180Z,2.33
2023-04-25T10:30:16.841Z,2.63
2023-04-25T10:32:46.190Z,3.50
2023-04-25T10:35:17.690Z,2.10
2023-04-25T10:38:08.767Z,3.05
2023-04-25T10:40:37.457Z,3.97
2023-04-25T10:43:32.586Z,4.30
2023-04-25T10:46:04.598Z,2.03
2023-04-25T10:48:32.884Z,1.38
2023-04-25T10:51:13.662Z,5.13
2023-04-25T10:53:41.104Z,3.03
2023-04-25T10:56:15.633Z,2.60
2023-04-25T10:58:48.117Z,1.98
2023-04-25T11:01:21.718Z,3.70
2023-04-25T11:07:12.690Z,1.77
2023-04-25T11:09:42.122Z,2.90
2023-04-25T11:12:11.119Z,2.40
2023-04-25T11:17:07.830Z,3.53
2023-04-25T11:19:35.351Z,2.92
2023-04-25T11:22:04.096Z,2.28
2023-04-25T11:24:33.357Z,4.45
2023-04-25T11:27:01.209Z,2.97
2023-04-25T11:29:29.180Z,3.08
2023-04-25T11:31:59.562Z,2.78
2023-04-25T11:34:28.301Z,2.75
2023-04-25T11:36:55.963Z,9.05
2023-04-25T11:39:24.590Z,2.58
2023-04-25T11:41:51.643Z,2.30
2023-04-25T11:44:20.387Z,2.10
2023-04-25T11:46:48.938Z,2.47
2023-04-25T11:49:16.838Z,1.92
2023-04-25T11:51:49.790Z,3.00
2023-04-25T11:54:17.360Z,2.85
2023-04-25T11:56:45.989Z,4.13
2023-04-25T11:59:14.394Z,2.58
2023-04-25T12:01:50.811Z,3.30
2023-04-25T12:04:19.375Z,1.60
2023-04-25T12:06:49.203Z,2.38
2023-04-25T12:09:38.831Z,2.13
2023-04-25T12:12:07.052Z,1.75
2023-04-25T12:14:37.087Z,2.00
2023-04-25T12:17:09.535Z,2.80
2023-04-25T12:19:41.442Z,2.00
2023-04-25T12:22:23.719Z,2.53
2023-04-25T12:24:51.850Z,1.95
2023-04-25T12:27:20.463Z,3.10
2023-04-25T12:29:57.911Z,2.13
2023-04-25T12:32:26.840Z,2.20
2023-04-25T12:34:54.203Z,2.17
2023-04-25T12:37:23.117Z,2.30
2023-04-25T12:39:51.872Z,2.83
2023-04-25T12:42:19.452Z,2.72
2023-04-25T12:44:47.710Z,1.98
2023-04-25T12:47:15.471Z,2.60
2023-04-25T12:49:42.338Z,3.22
2023-04-25T12:52:10.503Z,2.20
2023-04-25T12:54:37.624Z,2.03
2023-04-25T12:57:04.727Z,1.75
2023-04-25T12:59:34.561Z,2.20
2023-04-25T13:02:02.161Z,3.00
2023-04-25T13:04:29.442Z,3.45
2023-04-25T13:06:57.181Z,2.22
2023-04-25T13:09:24.974Z,1.95
2023-04-25T13:11:56.040Z,3.75
2023-04-25T13:14:25.348Z,2.53
2023-04-25T13:16:53.538Z,2.85
2023-04-25T13:19:21.471Z,2.78
2023-04-25T13:21:48.643Z,1.85
2023-04-25T13:24:15.657Z,2.47
2023-04-25T13:26:43.102Z,2.55
2023-04-25T13:29:10.207Z,2.00
2023-04-25T13:31:37.532Z,3.25
2023-04-25T13:34:04.757Z,2.75
2023-04-25T13:36:33.109Z,3.30
2023-04-25T13:39:01.045Z,2.17
2023-04-25T13:41:28.162Z,9.05
2023-04-25T13:43:55.619Z,3.13
2023-04-25T13:46:44.636Z,2.00
2023-04-25T13:49:16.764Z,1.27
2023-04-25T13:51:44.001Z,3.13
2023-04-25T13:54:11.857Z,2.10
2023-04-25T13:56:39.556Z,2.15
2023-04-25T13:59:07.014Z,1.67
2023-04-25T14:01:37.104Z,4.88
2023-04-25T14:04:07.984Z,3.58
2023-04-25T14:06:38.064Z,2.42
2023-04-25T14:09:08.400Z,3.08
2023-04-25T14:11:35.514Z,2.50
2023-04-25T14:14:02.711Z,2.40
2023-04-25T14:16:31.594Z,2.42
2023-04-25T14:19:02.167Z,1.42
2023-04-25T14:21:30.596Z,2.30
2023-04-25T14:23:58.505Z,2.42
2023-04-25T14:26:25.933Z,1.70
2023-04-25T14:28:53.783Z,2.75
2023-04-25T14:31:22.488Z,2.85
2023-04-25T14:33:54.744Z,1.50
2023-04-25T14:36:23.331Z,3.22
2023-04-25T14:38:50.686Z,1.80
2023-04-25T14:41:18.230Z,2.00
2023-04-25T14:43:46.758Z,1.45
2023-04-25T14:46:15.765Z,1.80
2023-04-25T14:48:43.891Z,2.65
2023-04-25T14:51:10.795Z,2.70
2023-04-25T14:53:39.606Z,1.83
2023-04-25T14:56:06.859Z,1.95
2023-04-25T14:58:34.033Z,2.40
2023-04-25T15:01:01.627Z,2.13
2023-04-25T15:03:29.346Z,2.92
2023-04-25T15:05:57.128Z,3.92
2023-04-25T15:08:24.470Z,1.88
2023-04-25T15:10:51.900Z,1.42
2023-04-25T15:13:20.472Z,3.05
2023-04-25T15:15:52.561Z,2.08
2023-04-25T15:18:25.241Z,3.20
2023-04-25T15:20:53.580Z,1.63
2023-04-25T15:23:22.736Z,1.52
2023-04-25T15:25:53.020Z,2.88
2023-04-25T15:28:22.620Z,2.35
2023-04-25T15:30:50.249Z,1.88
2023-04-25T15:33:18.031Z,1.80
2023-04-25T15:35:46.194Z,2.10
2023-04-25T15:38:13.807Z,2.35
2023-04-25T15:40:44.879Z,2.03
2023-04-25T15:43:16.183Z,3.57
2023-04-25T15:45:43.802Z,2.25
2023-04-25T15:48:11.523Z,2.28
2023-04-25T15:50:39.217Z,2.10
2023-04-25T15:53:07.476Z,3.72
2023-04-25T15:55:35.583Z,4.70
2023-04-25T15:58:03.292Z,2.20
2023-04-25T16:00:31.837Z,8.02
2023-04-25T16:02:59.717Z,2.70
2023-04-25T16:05:27.408Z,3.28
2023-04-25T16:07:57.805Z,2.00
2023-04-25T16:10:25.285Z,2.50
2023-04-25T16:12:53.359Z,2.50
2023-04-25T16:15:20.934Z,5.65
2023-04-25T16:17:48.548Z,1.67
2023-04-25T16:20:15.960Z,1.67
2023-04-25T16:22:44.689Z,2.58
2023-04-25T16:25:12.954Z,5.15
2023-04-25T16:27:41.963Z,3.85
2023-04-25T16:30:10.942Z,6.43
2023-04-25T16:32:40.384Z,3.13
2023-04-25T16:35:09.641Z,3.10
2023-04-25T16:37:38.457Z,4.63
2023-04-25T16:40:09.277Z,3.58
2023-04-25T16:42:37.502Z,5.15
2023-04-25T16:45:05.546Z,3.58
2023-04-25T16:47:33.729Z,4.70
2023-04-25T16:50:01.839Z,3.00
2023-04-25T16:52:28.836Z,4.38
2023-04-25T16:54:55.854Z,3.90
2023-04-25T16:57:23.548Z,1.52
2023-04-25T16:59:50.980Z,3.97
2023-04-25T17:02:19.214Z,3.70
2023-04-25T17:04:47.100Z,3.28
2023-04-25T17:07:15.387Z,2.50
2023-04-25T17:09:42.840Z,2.63
2023-04-25T17:12:11.519Z,3.45
2023-04-25T17:14:39.634Z,3.20
2023-04-25T17:17:07.423Z,2.80
2023-04-25T17:19:37.047Z,2.40
2023-04-25T17:22:05.333Z,5.68
2023-04-25T17:24:32.996Z,8.93
2023-04-25T17:27:00.110Z,14.80
2023-04-25T17:29:28.450Z,84.32
2023-04-25T17:31:57.434Z,62.47
2023-04-25T17:34:25.222Z,66.53
2023-04-25T17:36:52.823Z,52.42
2023-04-25T17:39:20.492Z,35.03
2023-04-25T17:41:47.688Z,24.80
2023-04-25T17:44:15.631Z,12.38
2023-04-25T17:46:43.444Z,5.72
2023-04-25T17:49:11.981Z,5.85
2023-04-25T17:51:39.589Z,4.10
2023-04-25T17:54:07.160Z,4.80
2023-04-25T17:56:37.990Z,4.50
2023-04-25T17:59:05.587Z,3.85
2023-04-25T18:01:32.970Z,5.93
2023-04-25T18:04:01.832Z,4.63
2023-04-25T18:06:29.806Z,5.93
2023-04-25T18:09:00.314Z,7.18
2023-04-25T18:11:28.217Z,7.13
2023-04-25T18:13:56.418Z,6.07
2023-04-25T18:16:23.694Z,6.30
2023-04-25T18:18:54.968Z,6.72
2023-04-25T18:21:23.074Z,7.90
2023-04-25T18:23:50.427Z,6.43
2023-04-25T18:26:18.588Z,7.93
2023-04-25T18:28:46.010Z,14.70
2023-04-25T18:31:14.344Z,6.97
2023-04-25T18:33:44.881Z,5.00
2023-04-25T18:36:12.124Z,4.47
2023-04-25T18:38:40.490Z,7.07
2023-04-25T18:41:33.850Z,4.40
2023-04-25T18:43:58.718Z,5.07
2023-04-25T18:46:26.426Z,3.60
2023-04-25T18:48:54.617Z,5.65
2023-04-25T18:51:30.051Z,5.10
2023-04-25T18:54:00.641Z,4.70
2023-04-25T18:56:29.000Z,3.88
2023-04-25T18:58:58.745Z,4.15
2023-04-25T19:01:29.135Z,5.03
2023-04-25T19:03:57.652Z,4.00
2023-04-25T19:06:28.142Z,8.10
2023-04-25T19:08:57.800Z,6.93
2023-04-25T19:11:25.706Z,3.78
2023-04-25T19:13:56.875Z,7.35
2023-04-25T19:16:26.734Z,4.40
2023-04-25T19:18:57.311Z,6.38
2023-04-25T19:21:24.997Z,5.50
2023-04-25T19:23:54.878Z,5.50
2023-04-25T19:26:22.864Z,5.60
2023-04-25T19:29:09.135Z,6.53
2023-04-25T19:31:38.167Z,4.60
2023-04-25T19:34:07.999Z,4.53
2023-04-25T19:36:38.773Z,6.07
2023-04-25T19:39:09.266Z,5.22
2023-04-25T19:41:38.957Z,4.40
2023-04-25T19:44:07.859Z,5.43
2023-04-25T19:46:37.071Z,5.15
2023-04-25T19:49:08.193Z,6.55
2023-04-25T19:51:36.741Z,6.13
2023-04-25T19:54:04.604Z,6.35
2023-04-25T19:56:31.711Z,4.82
2023-04-25T19:58:58.698Z,5.18
2023-04-25T20:01:26.418Z,5.75
2023-04-25T20:03:54.166Z,5.28
2023-04-25T20:06:22.007Z,6.75
2023-04-25T20:08:51.020Z,6.20
2023-04-25T20:11:18.501Z,5.97
2023-04-25T20:13:45.934Z,7.90
2023-04-25T20:16:14.019Z,7.03
2023-04-25T20:18:42.022Z,9.88
2023-04-25T20:21:09.379Z,8.32
2023-04-25T20:23:38.412Z,5.38
2023-04-25T20:26:05.825Z,5.75
2023-04-25T20:28:33.280Z,6.25
2023-04-25T20:31:04.026Z,4.65
2023-04-25T20:33:31.649Z,4.90
2023-04-25T20:35:59.256Z,4.63
2023-04-25T20:38:27.041Z,5.10
2023-04-25T20:40:56.156Z,5.03
2023-04-25T20:43:24.011Z,6.15
2023-04-25T20:45:50.980Z,6.55
2023-04-25T20:48:18.589Z,5.78
2023-04-25T20:50:47.800Z,7.40
2023-04-25T20:53:15.249Z,4.07
2023-04-25T20:55:42.284Z,6.47
2023-04-25T20:58:09.872Z,4.78
2023-04-25T21:00:39.586Z,7.43
2023-04-25T21:03:08.031Z,6.53
2023-04-25T21:05:36.512Z,6.38
2023-04-25T21:08:04.458Z,4.47
2023-04-25T21:10:31.561Z,5.55
2023-04-25T21:12:58.981Z,5.43
2023-04-25T21:15:26.876Z,4.25
2023-04-25T21:17:54.999Z,6.55
2023-04-25T21:20:22.085Z,5.03
2023-04-25T21:22:53.755Z,7.50
2023-04-25T21:25:25.735Z,4.40
2023-04-25T21:27:53.597Z,9.00
2023-04-25T21:30:23.748Z,5.28
2023-04-25T21:32:52.972Z,6.68
2023-04-25T21:35:23.396Z,6.90
2023-04-25T21:37:51.890Z,7.15
2023-04-25T21:40:19.084Z,5.15
2023-04-25T21:42:54.348Z,6.80
2023-04-25T21:45:22.611Z,5.40
2023-04-25T21:47:50.713Z,4.95
2023-04-25T21:50:18.901Z,5.65
2023-04-25T21:52:45.966Z,6.82
2023-04-25T21:55:13.322Z,7.07
2023-04-25T21:57:43.534Z,6.97
2023-04-25T22:00:21.993Z,5.80
2023-04-25T22:02:49.822Z,6.35
2023-04-25T22:05:18.323Z,7.10
2023-04-25T22:07:45.950Z,7.88
2023-04-25T22:10:13.802Z,5.55
2023-04-25T22:12:41.450Z,6.47
2023-04-25T22:15:10.216Z,4.85
2023-04-25T22:17:38.874Z,6.30
2023-04-25T22:20:14.381Z,7.47
2023-04-25T22:22:42.142Z,7.22
2023-04-25T22:25:10.049Z,6.43
2023-04-25T22:27:37.035Z,7.93
2023-04-25T22:30:04.868Z,7.57
2023-04-25T22:32:32.325Z,9.57
2023-04-25T22:34:59.959Z,8.07
2023-04-25T22:37:27.208Z,8.50
2023-04-25T22:39:55.121Z,6.72
2023-04-25T22:42:22.226Z,7.93
2023-04-25T22:44:49.824Z,7.82
2023-04-25T22:47:17.071Z,10.88
2023-04-25T22:49:45.761Z,7.50
2023-04-25T22:52:13.339Z,6.72
2023-04-25T22:54:40.281Z,8.25
2023-04-25T22:57:08.394Z,9.18
2023-04-25T22:59:37.019Z,6.88
2023-04-25T23:02:04.019Z,8.85
2023-04-25T23:04:31.464Z,6.25
2023-04-25T23:06:58.841Z,10.93
2023-04-25T23:09:26.746Z,5.30
2023-04-25T23:11:54.042Z,8.30
2023-04-25T23:14:21.348Z,7.97
2023-04-25T23:16:48.588Z,7.05
2023-04-25T23:19:15.625Z,6.53
2023-04-25T23:21:43.032Z,8.00
2023-04-25T23:24:10.282Z,9.13
2023-04-25T23:26:37.701Z,10.38
2023-04-25T23:29:05.271Z,4.93
2023-04-25T23:31:32.531Z,6.88
2023-04-25T23:34:00.276Z,7.18
2023-04-25T23:36:28.399Z,7.88
2023-04-25T23:38:56.356Z,11.35
2023-04-25T23:41:23.877Z,8.18
2023-04-25T23:43:51.001Z,6.82
2023-04-25T23:46:19.000Z,6.55
2023-04-25T23:48:46.806Z,6.55
2023-04-25T23:51:14.432Z,8.75
2023-04-25T23:53:42.108Z,6.43
2023-04-25T23:56:10.028Z,6.32
2023-04-25T23:58:37.458Z,6.38
